Josephine, Alabama
Current Conditions -  °F | °C
As of 6:55 PM on Friday 24 Oct 2014 (Local Time) from KJKA Reporting Station
Clear Clear  
Wind Chill: 66°   Ceiling: Unl
Heat Index: 66°   Visibility: 10mi
Dew Point: 47°   Wind: 0mph
Humidity: 50%   Direction: NA
Pressure: 30.02"   Gusts: NA
Location:  30.4162°N, 87.5594°W
Report Text: KJKA 242355Z AUTO 00000KT 10SM CLR 19/08 A3002 RMK AO2 T01900082 10248 20190
Loading
Personal Weather Stations






























Interactive Weather Map New forecast layout! Learn more

10-Day Weather Forecast

Advertisements
Track Severe Weather on mobile